香港 の空港の天気 - METARとTAF

香港国際空港 ( VHHH / HKG ) - 香港 赤リョウ角
飛行場実況気象(Metar)
観測時間01/19 05:30 HKT (01/18 21:30 UTC)
風向・風速不定 2m/s
視程8000m
天気現象
少しの雲 雲底高度 910m
全天の4割程度の雲 雲底高度 1370m
気温19℃
湿度83%
気圧1017hPa
METARVHHH 182130Z VRB04KT 8000 FEW030 SCT045 19/16 Q1017 NOSIG
過去の天気等 Google飛行場航空写真 Wunderground天気予報

過去48時間のMETAR

飛行場予報(TAF)
発表時間: 1/19 01:00 HKT (1/18 17:00 UTC)
予報対象時間: 19日2時 HKT ~ 20日8時 HKT
風向・風速東 5m/s
視程8,000m
少しの雲 雲底高度 610m
全天の4割程度の雲 雲底高度 1,220m
19日2時 HKT ~ 19日8時 HKT に一時的に
視程4,000m
天気現象もや 弱い雨
TAF VHHH 181700Z 1818/1924 08010KT 8000 FEW020 SCT040 TX22/1906Z TN18/1823Z TN18/1923Z
TEMPO 1818/1824 4000 BR -RA